Time;durP1;ratioP1;P1;durP2;ratioP2;P2;SDS_P1;SDS_P2;PMS_P1;PMS_P2;Temp;Humidity;BMP_temperature;BMP_pressure;BME280_temperature;BME280_humidity;BME280_pressure;Samples;Min_cycle;Max_cycle;Signal;HPM_P1;HPM_P2
2022/09/05 00:02:03;;;;;;;8.27;6.30;;;19.70;93.00;;;;;;5092681;28;20051;-65
2022/09/05 00:05:00;;;;;;;8.82;6.63;;;19.60;92.90;;;;;;5083882;28;20699;-65
2022/09/05 00:08:10;;;;;;;12.93;7.13;;;19.60;93.20;;;;;;5098637;28;20040;-65
2022/09/05 00:10:49;;;;;;;11.02;6.90;;;19.60;93.20;;;;;;5081069;28;20134;-65
2022/09/05 00:13:26;;;;;;;8.38;6.30;;;19.50;93.30;;;;;;5087569;28;20040;-64
2022/09/05 00:16:34;;;;;;;8.55;6.38;;;19.50;93.20;;;;;;5101892;28;20040;-63
2022/09/05 00:19:31;;;;;;;10.23;7.15;;;19.50;93.50;;;;;;5086141;28;20039;-65
2022/09/05 00:22:33;;;;;;;9.82;6.63;;;19.50;93.40;;;;;;5094193;28;20088;-65
2022/09/05 00:25:26;;;;;;;8.63;6.22;;;19.50;93.60;;;;;;5090317;28;20128;-63
2022/09/05 00:28:29;;;;;;;13.18;7.22;;;19.40;93.60;;;;;;5093581;28;20402;-65
2022/09/05 00:31:06;;;;;;;12.65;7.43;;;19.40;93.70;;;;;;5087083;28;20039;-65
2022/09/05 00:34:04;;;;;;;11.23;7.40;;;19.40;93.80;;;;;;5072413;28;20052;-65
2022/09/05 00:36:43;;;;;;;10.65;7.60;;;19.40;93.90;;;;;;5059291;28;20048;-65
2022/09/05 00:39:25;;;;;;;11.57;7.93;;;19.40;93.90;;;;;;5094993;28;20032;-62
2022/09/05 00:41:54;;;;;;;11.65;8.45;;;19.40;93.80;;;;;;5091101;28;20124;-64
2022/09/05 00:44:23;;;;;;;12.93;8.85;;;19.30;93.80;;;;;;5096897;28;20048;-65
2022/09/05 00:47:10;;;;;;;13.25;9.68;;;19.30;93.80;;;;;;5093409;28;20040;-64
2022/09/05 00:49:51;;;;;;;14.35;10.20;;;19.30;94.00;;;;;;5086087;28;20100;-65
2022/09/05 00:52:41;;;;;;;12.88;10.38;;;19.30;94.00;;;;;;5083374;28;20045;-66
2022/09/05 00:55:33;;;;;;;14.80;11.90;;;19.30;94.10;;;;;;5084409;28;20486;-65
2022/09/05 00:58:14;;;;;;;15.98;13.13;;;19.30;94.10;;;;;;5080899;28;20044;-64
2022/09/05 01:00:54;;;;;;;17.08;13.40;;;19.30;94.10;;;;;;5109246;22;20130;-79
2022/09/05 01:03:29;;;;;;;18.70;13.00;;;19.30;94.30;;;;;;5043586;28;20045;-78
2022/09/05 01:06:16;;;;;;;16.33;12.82;;;19.20;94.20;;;;;;5049370;28;20110;-76
2022/09/05 01:09:01;;;;;;;14.68;12.40;;;19.20;94.30;;;;;;5049638;28;20051;-76
2022/09/05 01:11:56;;;;;;;19.33;13.43;;;19.20;94.50;;;;;;5054593;28;20036;-77
2022/09/05 01:15:07;;;;;;;21.83;13.77;;;19.20;94.50;;;;;;5060632;28;20084;-77
2022/09/05 01:17:45;;;;;;;17.23;13.45;;;19.20;94.60;;;;;;5067410;28;20074;-77
2022/09/05 01:20:16;;;;;;;17.00;13.55;;;19.20;94.60;;;;;;5070122;28;20086;-77
2022/09/05 01:23:01;;;;;;;17.55;14.15;;;19.10;94.50;;;;;;5058834;28;20078;-75
2022/09/05 01:25:39;;;;;;;17.83;12.77;;;19.10;94.70;;;;;;5062074;28;20491;-77
2022/09/05 01:28:14;;;;;;;15.90;12.95;;;19.10;94.60;;;;;;5063021;28;20044;-77
2022/09/05 01:30:45;;;;;;;16.63;12.85;;;19.10;94.60;;;;;;5059436;28;20047;-77
2022/09/05 01:33:34;;;;;;;15.18;12.70;;;19.10;94.70;;;;;;5057696;28;20094;-76
2022/09/05 01:36:37;;;;;;;14.90;12.05;;;19.00;94.90;;;;;;5057121;28;20047;-76
2022/09/05 01:39:30;;;;;;;15.25;12.50;;;19.00;94.90;;;;;;5069667;28;20059;-76
2022/09/05 01:42:18;;;;;;;15.95;12.07;;;19.10;94.90;;;;;;5038978;28;20044;-76
2022/09/05 01:44:56;;;;;;;14.88;12.00;;;19.00;95.00;;;;;;5067579;28;20040;-77
2022/09/05 01:47:47;;;;;;;15.98;12.70;;;19.00;95.00;;;;;;5068101;28;20080;-76
2022/09/05 01:50:42;;;;;;;18.45;13.02;;;19.00;95.10;;;;;;5065133;28;20498;-76
2022/09/05 01:53:30;;;;;;;15.52;12.55;;;18.90;95.20;;;;;;5065121;28;20040;-76
2022/09/05 01:56:24;;;;;;;16.60;13.68;;;18.90;95.40;;;;;;5070335;28;20064;-77
2022/09/05 01:59:23;;;;;;;16.83;14.02;;;18.90;95.50;;;;;;5063534;28;20514;-77
2022/09/05 02:02:35;;;;;;;16.35;13.30;;;18.90;95.50;;;;;;5056020;28;20458;-76
2022/09/05 02:05:23;;;;;;;17.30;13.43;;;18.80;95.40;;;;;;5062308;28;20037;-77
2022/09/05 02:07:55;;;;;;;17.08;14.20;;;18.80;95.40;;;;;;5065441;28;20500;-76
2022/09/05 02:10:29;;;;;;;18.85;13.70;;;18.80;95.30;;;;;;5069764;28;20048;-77
2022/09/05 02:13:22;;;;;;;16.80;14.10;;;18.80;95.40;;;;;;5034035;28;20124;-77
2022/09/05 02:15:57;;;;;;;18.20;14.30;;;18.80;95.50;;;;;;5056247;28;20047;-77
2022/09/05 02:18:29;;;;;;;15.73;13.40;;;18.70;95.50;;;;;;5051791;28;20132;-77
2022/09/05 02:20:59;;;;;;;15.43;12.93;;;18.70;95.60;;;;;;5048424;28;20036;-76
2022/09/05 02:23:47;;;;;;;16.48;13.43;;;18.70;95.60;;;;;;5068225;28;20464;-76
2022/09/05 02:26:27;;;;;;;16.75;13.00;;;18.70;95.70;;;;;;5064208;28;20044;-76
2022/09/05 02:29:10;;;;;;;14.93;12.45;;;18.70;95.80;;;;;;5064409;28;20040;-76
2022/09/05 02:31:47;;;;;;;15.23;11.80;;;18.60;95.80;;;;;;5049321;28;20049;-76
2022/09/05 02:34:20;;;;;;;14.90;11.95;;;18.60;95.80;;;;;;5060923;28;20114;-76
2022/09/05 02:36:59;;;;;;;15.10;11.43;;;18.60;95.90;;;;;;5053735;28;20052;-76
2022/09/05 02:39:46;;;;;;;14.00;11.50;;;18.60;95.90;;;;;;5043279;28;20059;-76
2022/09/05 02:42:23;;;;;;;18.52;11.77;;;18.60;96.00;;;;;;5056551;28;20503;-77
2022/09/05 02:44:52;;;;;;;14.88;11.40;;;18.50;96.00;;;;;;5071243;28;20040;-76
2022/09/05 02:47:31;;;;;;;13.30;10.93;;;18.50;96.10;;;;;;5061257;28;20040;-77
2022/09/05 02:50:21;;;;;;;13.07;10.73;;;18.50;96.20;;;;;;5042116;28;20041;-76
2022/09/05 02:52:48;;;;;;;12.10;10.32;;;18.50;96.30;;;;;;5068197;28;20504;-76
2022/09/05 02:55:36;;;;;;;13.30;10.75;;;18.40;96.30;;;;;;5066792;28;20036;-76
2022/09/05 02:58:22;;;;;;;11.75;10.05;;;18.40;96.40;;;;;;5059481;28;20040;-76
2022/09/05 03:01:08;;;;;;;15.68;10.13;;;18.40;96.50;;;;;;5072591;28;20044;-77
2022/09/05 03:03:45;;;;;;;9.93;8.50;;;18.40;96.50;;;;;;5062479;28;20051;-76
2022/09/05 03:06:42;;;;;;;10.38;8.30;;;18.30;96.40;;;;;;5071542;28;20051;-76
2022/09/05 03:09:40;;;;;;;12.88;7.82;;;18.30;96.50;;;;;;5052875;28;20052;-76
2022/09/05 03:12:12;;;;;;;11.80;7.57;;;18.30;96.70;;;;;;5057924;28;20097;-77
2022/09/05 03:14:49;;;;;;;10.85;7.18;;;18.30;96.60;;;;;;5069646;28;20076;-76
2022/09/05 03:17:34;;;;;;;9.23;7.50;;;18.30;96.70;;;;;;5065902;28;20036;-77
2022/09/05 03:20:02;;;;;;;9.13;6.78;;;18.30;96.70;;;;;;5072179;28;20043;-76
2022/09/05 03:22:34;;;;;;;9.98;7.43;;;18.20;96.70;;;;;;5071907;28;20496;-76
2022/09/05 03:25:21;;;;;;;6.75;6.05;;;18.20;96.70;;;;;;5066005;28;20195;-76
2022/09/05 03:28:05;;;;;;;8.25;6.47;;;18.20;96.90;;;;;;5063183;28;20416;-75
2022/09/05 03:30:41;;;;;;;7.93;6.53;;;18.20;96.90;;;;;;5063388;28;20080;-77
2022/09/05 03:33:38;;;;;;;7.85;6.63;;;18.20;96.90;;;;;;5068205;28;20041;-77
2022/09/05 03:36:45;;;;;;;8.13;6.38;;;18.20;97.00;;;;;;5046115;28;20123;-76
2022/09/05 03:39:31;;;;;;;7.78;6.80;;;18.10;97.10;;;;;;5054025;28;20139;-77
2022/09/05 03:41:56;;;;;;;7.63;6.28;;;18.10;97.30;;;;;;5028890;28;20051;-76
2022/09/05 03:44:36;;;;;;;9.07;6.47;;;18.10;97.10;;;;;;5071054;28;20045;-76
2022/09/05 03:47:11;;;;;;;11.80;6.85;;;18.10;97.20;;;;;;5064579;28;20040;-75
2022/09/05 03:50:03;;;;;;;7.80;6.22;;;18.00;97.30;;;;;;5071057;28;20060;-77
2022/09/05 03:52:47;;;;;;;8.27;6.65;;;18.10;97.40;;;;;;5071013;28;20120;-77
2022/09/05 03:55:22;;;;;;;9.88;6.90;;;18.00;97.40;;;;;;5073166;28;20048;-77
2022/09/05 03:57:59;;;;;;;11.57;7.38;;;18.00;97.40;;;;;;5051316;28;20047;-76
2022/09/05 04:00:33;;;;;;;9.70;7.35;;;18.00;97.40;;;;;;5064825;28;20142;-77
2022/09/05 04:03:16;;;;;;;11.52;8.50;;;18.00;97.50;;;;;;5067632;28;20037;-77
2022/09/05 04:05:51;;;;;;;11.52;8.85;;;18.00;97.60;;;;;;5044436;28;20045;-77
2022/09/05 04:08:24;;;;;;;13.93;8.85;;;18.00;97.60;;;;;;5063140;28;20044;-76
2022/09/05 04:10:55;;;;;;;15.02;9.30;;;17.90;97.60;;;;;;5040337;28;20044;-77
2022/09/05 04:13:36;;;;;;;13.15;9.10;;;17.90;97.60;;;;;;5060271;28;20040;-76
2022/09/05 04:16:05;;;;;;;12.18;8.95;;;18.00;97.70;;;;;;5068164;28;20064;-77
2022/09/05 04:18:50;;;;;;;12.15;9.02;;;17.90;97.60;;;;;;5062976;28;20064;-77
2022/09/05 04:21:25;;;;;;;11.38;9.50;;;17.90;97.70;;;;;;5064590;28;20404;-76
2022/09/05 04:23:57;;;;;;;13.57;9.00;;;17.90;97.60;;;;;;5071809;28;20095;-76
2022/09/05 04:26:47;;;;;;;11.27;9.02;;;17.90;97.70;;;;;;5062994;28;20087;-76
2022/09/05 04:29:38;;;;;;;11.20;9.02;;;17.90;97.70;;;;;;5058442;28;20504;-75
2022/09/05 04:32:51;;;;;;;10.80;8.45;;;17.90;97.70;;;;;;5062713;28;20036;-76
2022/09/05 04:35:36;;;;;;;;;;;17.90;97.80;;;;;;5052415;28;20113;-78
2022/09/05 04:38:11;;;;;;;10.25;7.25;;;17.80;97.90;;;;;;5060692;28;19954;-77
2022/09/05 04:41:02;;;;;;;13.20;7.97;;;17.90;97.70;;;;;;5054886;28;20033;-75
2022/09/05 04:43:46;;;;;;;9.02;7.18;;;18.00;97.80;;;;;;5060417;28;20127;-76
2022/09/05 04:46:29;;;;;;;8.35;6.80;;;17.90;97.80;;;;;;5057427;28;20048;-76
2022/09/05 04:49:10;;;;;;;7.85;6.63;;;17.80;97.80;;;;;;5058459;28;20051;-76
2022/09/05 04:52:14;;;;;;;6.90;6.10;;;17.80;97.70;;;;;;5069152;28;20067;-76
2022/09/05 04:54:48;;;;;;;8.52;6.85;;;17.80;97.90;;;;;;5072549;28;20049;-76
2022/09/05 04:57:34;;;;;;;7.88;6.20;;;17.80;97.90;;;;;;5065484;28;20404;-76
2022/09/05 05:00:25;;;;;;;7.97;6.30;;;17.80;97.90;;;;;;5061449;28;20044;-75
2022/09/05 05:02:59;;;;;;;7.95;6.45;;;17.80;97.90;;;;;;5055544;28;20246;-77
2022/09/05 05:05:38;;;;;;;8.15;6.63;;;17.80;98.00;;;;;;5065817;28;20091;-77
2022/09/05 05:08:15;;;;;;;8.20;6.57;;;17.80;98.00;;;;;;5061307;28;20160;-77
2022/09/05 05:10:43;;;;;;;7.65;6.50;;;17.80;98.00;;;;;;5070125;28;20052;-77
2022/09/05 05:13:30;;;;;;;8.88;6.55;;;17.80;98.10;;;;;;5065807;28;20544;-74
2022/09/05 05:15:57;;;;;;;8.40;6.30;;;17.80;98.10;;;;;;5058674;28;20041;-75
2022/09/05 05:18:39;;;;;;;7.78;5.90;;;17.70;98.10;;;;;;5063709;28;20059;-76
2022/09/05 05:21:12;;;;;;;8.15;6.15;;;17.80;98.20;;;;;;5063584;28;20377;-76
2022/09/05 05:23:53;;;;;;;9.25;6.60;;;17.80;98.20;;;;;;5058421;28;20294;-76
2022/09/05 05:26:29;;;;;;;9.25;6.15;;;17.70;98.30;;;;;;5063459;28;20530;-76
2022/09/05 05:29:07;;;;;;;8.15;6.80;;;17.70;98.30;;;;;;5058250;28;20482;-76
2022/09/05 05:31:37;;;;;;;7.57;6.47;;;17.70;98.40;;;;;;5063321;28;20557;-76
2022/09/05 05:34:14;;;;;;;8.75;6.93;;;17.70;98.40;;;;;;5061681;28;20051;-76
2022/09/05 05:36:49;;;;;;;10.45;6.72;;;17.70;98.50;;;;;;5060924;28;20041;-76
2022/09/05 05:39:27;;;;;;;7.43;6.38;;;17.70;98.60;;;;;;5061935;28;20051;-74
2022/09/05 05:41:54;;;;;;;9.13;6.93;;;17.70;98.70;;;;;;5063253;28;20396;-74
2022/09/05 05:44:37;;;;;;;7.43;6.47;;;17.70;98.90;;;;;;5063898;28;20124;-76
2022/09/05 05:47:14;;;;;;;7.43;6.53;;;17.70;98.70;;;;;;5056559;28;20499;-76
2022/09/05 05:50:02;;;;;;;10.05;6.70;;;17.70;98.70;;;;;;5056039;28;20044;-76
2022/09/05 05:53:00;;;;;;;7.75;6.50;;;17.70;98.80;;;;;;5062731;28;20090;-76
2022/09/05 05:56:03;;;;;;;11.52;6.65;;;17.70;98.90;;;;;;5055458;28;20056;-76
2022/09/05 05:58:40;;;;;;;8.32;7.00;;;17.80;98.90;;;;;;5064067;28;20245;-76
2022/09/05 06:01:35;;;;;;;9.00;6.72;;;17.80;98.90;;;;;;5058056;28;20044;-76
2022/09/05 06:04:36;;;;;;;9.18;7.15;;;17.70;99.00;;;;;;5049727;28;20037;-76
2022/09/05 06:07:28;;;;;;;8.52;6.63;;;17.80;99.10;;;;;;5055278;28;20040;-76
2022/09/05 06:10:15;;;;;;;8.95;6.78;;;17.70;99.00;;;;;;5057176;28;20036;-76
2022/09/05 06:13:10;;;;;;;9.23;7.25;;;17.70;99.10;;;;;;5063424;28;20043;-76
2022/09/05 06:16:13;;;;;;;10.05;6.93;;;17.70;99.30;;;;;;5065070;28;20454;-74
2022/09/05 06:19:04;;;;;;;10.75;7.22;;;17.80;99.30;;;;;;5051095;28;20041;-75
2022/09/05 06:21:48;;;;;;;9.02;7.63;;;17.80;99.40;;;;;;5057238;28;20037;-75
2022/09/05 06:24:31;;;;;;;9.75;7.20;;;17.80;99.30;;;;;;5062956;28;20044;-76
2022/09/05 06:26:59;;;;;;;11.30;7.07;;;17.80;99.40;;;;;;5068597;28;20036;-76
2022/09/05 06:29:37;;;;;;;12.00;7.07;;;17.80;99.30;;;;;;5056473;28;20037;-75
2022/09/05 06:32:25;;;;;;;8.23;7.32;;;17.90;99.40;;;;;;5051910;28;20037;-76
2022/09/05 06:35:15;;;;;;;8.07;6.80;;;17.90;99.50;;;;;;5063930;28;20124;-76
2022/09/05 06:38:00;;;;;;;10.23;7.18;;;17.90;99.60;;;;;;5057375;28;20086;-75
2022/09/05 06:40:49;;;;;;;8.65;7.30;;;18.00;99.60;;;;;;5069285;28;20539;-75
2022/09/05 06:43:36;;;;;;;9.77;7.65;;;18.00;99.70;;;;;;5057891;28;20045;-75
2022/09/05 06:46:33;;;;;;;10.38;7.55;;;18.00;99.70;;;;;;5062430;28;20492;-75
2022/09/05 06:49:21;;;;;;;9.80;7.22;;;18.10;99.90;;;;;;5059496;28;20126;-74
2022/09/05 06:51:55;;;;;;;13.85;7.97;;;18.10;99.70;;;;;;5040503;28;20037;-75
2022/09/05 06:54:45;;;;;;;9.77;7.88;;;18.10;99.80;;;;;;5056606;28;20560;-76
2022/09/05 06:57:43;;;;;;;9.23;7.70;;;18.10;99.90;;;;;;5058881;28;20120;-75
2022/09/05 07:00:30;;;;;;;11.63;7.65;;;18.10;99.90;;;;;;5044855;28;20076;-75
2022/09/05 07:03:27;;;;;;;8.82;7.07;;;18.20;99.90;;;;;;5072311;22;20041;-79
2022/09/05 07:06:14;;;;;;;9.70;7.53;;;18.30;99.90;;;;;;5033384;28;20041;-79
2022/09/05 07:08:55;;;;;;;9.80;7.60;;;18.30;99.90;;;;;;5027110;28;20113;-80
2022/09/05 07:11:39;;;;;;;10.18;7.43;;;18.30;99.90;;;;;;5021337;28;20049;-80
2022/09/05 07:14:20;;;;;;;14.32;7.50;;;18.30;99.90;;;;;;5020333;28;20037;-80
2022/09/05 07:16:54;;;;;;;9.20;7.97;;;18.40;99.90;;;;;;5022986;28;20037;-79
2022/09/05 07:19:48;;;;;;;10.60;8.07;;;18.40;99.90;;;;;;5046190;28;20061;-81
2022/09/05 07:22:37;;;;;;;10.00;6.78;;;18.50;99.90;;;;;;5027823;28;20107;-78
2022/09/05 07:25:08;;;;;;;9.77;7.38;;;18.50;99.90;;;;;;5018677;28;20044;-78
2022/09/05 07:27:52;;;;;;;9.70;7.72;;;18.60;99.90;;;;;;5035319;28;20037;-79
2022/09/05 07:30:19;;;;;;;11.82;7.72;;;18.70;99.90;;;;;;5027874;28;20045;-79
2022/09/05 07:32:50;;;;;;;12.73;9.02;;;19.00;99.90;;;;;;5008719;28;20042;-79
2022/09/05 07:35:28;;;;;;;11.20;7.78;;;18.80;99.90;;;;;;5027636;28;20262;-79
2022/09/05 07:38:17;;;;;;;10.82;8.23;;;18.80;99.90;;;;;;5018445;28;20116;-79
2022/09/05 07:40:52;;;;;;;9.70;8.63;;;19.00;99.90;;;;;;5019965;28;20056;-79
2022/09/05 07:43:25;;;;;;;11.35;9.23;;;19.10;99.90;;;;;;5033462;28;20121;-79
2022/09/05 07:46:02;;;;;;;11.57;8.98;;;19.30;99.90;;;;;;5034059;28;20044;-79
2022/09/05 07:48:33;;;;;;;12.65;10.13;;;19.40;99.90;;;;;;5033398;28;20042;-79
2022/09/05 07:51:03;;;;;;;12.85;10.48;;;19.50;99.90;;;;;;5008850;28;20112;-79
2022/09/05 07:53:33;;;;;;;11.35;9.63;;;19.60;99.90;;;;;;5021172;28;20037;-79
2022/09/05 07:56:01;;;;;;;12.90;10.43;;;19.70;99.90;;;;;;5025261;28;20061;-79
2022/09/05 07:58:52;;;;;;;11.07;9.50;;;19.80;99.90;;;;;;5034200;28;20116;-79
2022/09/05 08:01:21;;;;;;;11.75;9.05;;;19.80;99.90;;;;;;5013507;28;20037;-80
2022/09/05 08:03:56;;;;;;;12.27;8.85;;;19.90;99.90;;;;;;5030515;28;20046;-80
2022/09/05 08:06:24;;;;;;;13.07;8.65;;;20.00;99.90;;;;;;5031107;28;20048;-79
2022/09/05 08:09:08;;;;;;;13.63;8.82;;;20.10;99.90;;;;;;5033310;28;20164;-79
2022/09/05 08:11:35;;;;;;;9.90;7.72;;;20.20;99.90;;;;;;5015957;28;20041;-79
2022/09/05 08:14:21;;;;;;;9.57;7.68;;;20.30;99.90;;;;;;5033168;28;20405;-79
2022/09/05 08:16:47;;;;;;;11.45;8.45;;;20.40;99.90;;;;;;5028128;28;20050;-80
2022/09/05 08:19:39;;;;;;;14.10;8.40;;;20.40;99.90;;;;;;5033714;28;20049;-79
2022/09/05 08:22:12;;;;;;;10.35;7.95;;;20.50;99.90;;;;;;5027082;28;20346;-79
2022/09/05 08:24:54;;;;;;;9.63;8.23;;;20.50;99.90;;;;;;5033647;28;20041;-79
2022/09/05 08:27:24;;;;;;;12.25;8.48;;;20.70;99.90;;;;;;5011292;28;20095;-79
2022/09/05 08:30:06;;;;;;;10.45;8.00;;;20.70;99.80;;;;;;5032558;28;20048;-79
2022/09/05 08:32:43;;;;;;;12.50;8.57;;;20.80;99.80;;;;;;5013549;28;20056;-79
2022/09/05 08:35:29;;;;;;;9.90;8.27;;;20.90;99.90;;;;;;5030510;28;20374;-79
2022/09/05 08:37:57;;;;;;;10.63;7.53;;;21.00;99.70;;;;;;5001341;28;20045;-79
2022/09/05 08:40:26;;;;;;;10.05;7.68;;;21.00;99.60;;;;;;5019231;28;20381;-80
2022/09/05 08:43:17;;;;;;;11.05;8.85;;;21.10;99.50;;;;;;5016015;28;20033;-79
2022/09/05 08:45:55;;;;;;;11.32;9.13;;;21.20;99.20;;;;;;5019398;28;20044;-79
2022/09/05 08:48:58;;;;;;;14.45;9.60;;;21.30;99.50;;;;;;5021934;28;20050;-79
2022/09/05 08:51:52;;;;;;;14.63;10.13;;;21.40;99.60;;;;;;5029789;28;20072;-80
2022/09/05 08:54:34;;;;;;;11.57;8.38;;;21.60;99.30;;;;;;5046405;28;20049;-80
2022/09/05 08:57:11;;;;;;;9.77;8.00;;;21.70;99.10;;;;;;5025632;28;20030;-80
2022/09/05 08:59:55;;;;;;;10.52;8.05;;;21.90;98.90;;;;;;5018602;28;20041;-80
2022/09/05 09:02:39;;;;;;;11.80;9.25;;;22.00;98.70;;;;;;5034067;28;20096;-80
2022/09/05 09:06:02;;;;;;;9.57;8.57;;;22.30;98.80;;;;;;5034078;28;20036;-80
2022/09/05 09:08:39;;;;;;;9.63;6.85;;;22.50;98.40;;;;;;5006519;28;20401;-81
2022/09/05 09:11:11;;;;;;;13.85;8.65;;;22.80;98.00;;;;;;5024999;28;20124;-81
2022/09/05 09:14:18;;;;;;;11.52;7.90;;;22.90;97.70;;;;;;5044857;28;20037;-81
2022/09/05 09:17:10;;;;;;;9.55;7.18;;;23.20;97.20;;;;;;5052103;28;20162;-81
2022/09/05 09:19:55;;;;;;;11.50;8.82;;;23.50;96.70;;;;;;5025886;28;20131;-81
2022/09/05 09:22:56;;;;;;;10.02;8.10;;;23.60;96.60;;;;;;5029376;28;20038;-81
2022/09/05 09:25:52;;;;;;;8.85;6.82;;;23.80;95.40;;;;;;5040026;28;20059;-80
2022/09/05 09:28:40;;;;;;;8.65;6.88;;;24.10;95.50;;;;;;5045920;28;20401;-80
2022/09/05 09:31:10;;;;;;;10.82;6.93;;;24.40;95.20;;;;;;5042963;28;20045;-80
2022/09/05 09:34:02;;;;;;;6.97;6.20;;;24.60;95.30;;;;;;5047896;28;20041;-80
2022/09/05 09:36:55;;;;;;;9.63;6.05;;;24.80;93.30;;;;;;5001990;28;20141;-80
2022/09/05 09:40:07;;;;;;;6.47;5.70;;;25.00;93.40;;;;;;5023973;28;20055;-81
2022/09/05 09:42:52;;;;;;;;;;;25.20;92.60;;;;;;5023963;28;20053;-81
2022/09/05 09:45:27;;;;;;;6.55;4.90;;;25.30;91.90;;;;;;5035452;28;19923;-80
2022/09/05 09:48:17;;;;;;;5.47;4.53;;;25.70;92.60;;;;;;5048308;28;20087;-80
2022/09/05 09:51:30;;;;;;;6.00;4.70;;;26.00;90.80;;;;;;5039137;28;20041;-82
2022/09/05 09:54:15;;;;;;;8.48;4.32;;;26.20;90.20;;;;;;5050715;28;20045;-82
2022/09/05 09:56:57;;;;;;;5.55;4.13;;;26.30;88.20;;;;;;5022928;28;20049;-81
2022/09/05 10:00:08;;;;;;;5.88;4.30;;;26.40;88.80;;;;;;5024244;28;20037;-82
2022/09/05 10:03:00;;;;;;;4.70;3.80;;;26.40;87.70;;;;;;5006970;28;20060;-82
2022/09/05 10:05:47;;;;;;;5.45;4.30;;;26.40;88.20;;;;;;5018051;28;20041;-82
2022/09/05 10:08:34;;;;;;;7.47;4.55;;;26.50;86.00;;;;;;5021887;28;20038;-82
2022/09/05 10:11:37;;;;;;;5.43;3.78;;;26.60;87.20;;;;;;5025881;28;20064;-82
2022/09/05 10:14:03;;;;;;;6.53;3.80;;;26.60;85.20;;;;;;5019685;28;20056;-79
2022/09/05 10:17:02;;;;;;;6.45;3.90;;;26.70;86.90;;;;;;5041535;28;20041;-79
2022/09/05 10:20:02;;;;;;;6.38;4.07;;;26.80;85.90;;;;;;5021901;28;20067;-80
2022/09/05 10:23:07;;;;;;;6.78;3.92;;;27.00;85.40;;;;;;5046530;28;20065;-82
2022/09/05 10:26:06;;;;;;;5.43;3.20;;;27.20;83.80;;;;;;4982630;28;20438;-83
2022/09/05 10:28:57;;;;;;;5.45;3.53;;;27.40;82.90;;;;;;4977024;28;20053;-83
2022/09/05 10:31:51;;;;;;;5.43;3.85;;;27.50;83.10;;;;;;5020531;28;20050;-82
2022/09/05 10:34:24;;;;;;;5.40;3.65;;;27.60;82.20;;;;;;5046472;28;20073;-81
2022/09/05 10:37:02;;;;;;;5.22;3.53;;;27.70;81.20;;;;;;5035978;28;20099;-81
2022/09/05 10:39:32;;;;;;;5.28;3.05;;;27.80;80.20;;;;;;5029001;28;20041;-81
2022/09/05 10:42:14;;;;;;;5.35;3.55;;;27.90;80.50;;;;;;5038858;28;20033;-80
2022/09/05 10:44:49;;;;;;;4.35;3.50;;;28.10;78.50;;;;;;5026304;28;20080;-81
2022/09/05 10:47:37;;;;;;;5.97;3.65;;;28.10;78.30;;;;;;5020958;28;20053;-81
2022/09/05 10:50:19;;;;;;;4.32;3.70;;;28.10;76.90;;;;;;5027308;28;20103;-81
2022/09/05 10:53:07;;;;;;;10.35;4.18;;;28.20;75.10;;;;;;5042267;28;20041;-81
2022/09/05 10:55:48;;;;;;;5.78;3.20;;;28.20;75.50;;;;;;5039843;28;20538;-81
2022/09/05 10:58:42;;;;;;;3.72;3.10;;;28.20;76.30;;;;;;5015074;28;20038;-81
2022/09/05 11:01:45;;;;;;;7.22;3.30;;;28.40;74.80;;;;;;5040940;28;20080;-81
2022/09/05 11:04:49;;;;;;;3.95;3.30;;;28.50;74.60;;;;;;5021250;28;20038;-81
2022/09/05 11:07:28;;;;;;;3.78;2.90;;;28.60;70.80;;;;;;5029566;28;20041;-81
2022/09/05 11:10:30;;;;;;;3.90;2.67;;;28.60;72.90;;;;;;5039891;28;20489;-81
2022/09/05 11:13:23;;;;;;;5.10;3.10;;;28.70;72.20;;;;;;4988727;28;20049;-81
2022/09/05 11:16:02;;;;;;;2.97;2.65;;;28.80;71.10;;;;;;5022435;28;20055;-81
2022/09/05 11:18:58;;;;;;;4.05;3.05;;;28.80;70.80;;;;;;5024043;28;20041;-81
2022/09/05 11:22:02;;;;;;;3.85;2.80;;;28.80;67.50;;;;;;5044170;28;20068;-80
2022/09/05 11:24:47;;;;;;;3.45;2.80;;;28.80;68.30;;;;;;5039286;28;20038;-84
2022/09/05 11:27:33;;;;;;;5.22;2.70;;;28.90;69.50;;;;;;5051954;28;20038;-82
2022/09/05 11:30:06;;;;;;;4.90;2.80;;;29.10;69.20;;;;;;5051555;28;20045;-81
2022/09/05 11:32:44;;;;;;;3.50;2.60;;;29.30;69.80;;;;;;5049954;28;20033;-77
2022/09/05 11:35:12;;;;;;;2.92;2.47;;;29.50;67.60;;;;;;5019632;28;20556;-77
2022/09/05 11:37:47;;;;;;;2.55;2.35;;;29.50;66.00;;;;;;5043019;28;20037;-82
2022/09/05 11:40:13;;;;;;;3.38;2.53;;;29.40;62.80;;;;;;5040768;28;20401;-79
2022/09/05 11:42:55;;;;;;;4.88;2.40;;;29.30;63.60;;;;;;5011290;28;20041;-79
2022/09/05 11:46:08;;;;;;;7.00;2.60;;;29.20;63.40;;;;;;5030570;28;20049;-77
2022/09/05 11:49:00;;;;;;;4.10;2.88;;;29.10;61.40;;;;;;5030960;28;20064;-77
2022/09/05 11:51:28;;;;;;;5.75;2.60;;;28.90;61.50;;;;;;5030654;28;20409;-79
2022/09/05 12:50:05;;;;;;;3.67;2.75;;;28.80;61.90;;;;;;5131742;27;20406;-64
2022/09/05 12:52:32;;;;;;;3.47;2.90;;;29.20;61.40;;;;;;5106788;28;20043;-63
2022/09/05 12:55:16;;;;;;;4.28;2.83;;;29.00;61.70;;;;;;5115224;27;20436;-62
2022/09/05 12:57:43;;;;;;;4.30;2.92;;;28.80;61.80;;;;;;5115696;27;20043;-62
2022/09/05 13:00:12;;;;;;;8.48;2.97;;;28.70;62.00;;;;;;5110502;27;20067;-63
2022/09/05 13:02:42;;;;;;;4.15;3.10;;;28.70;62.10;;;;;;5120142;27;20529;-65
2022/09/05 13:05:25;;;;;;;3.40;2.60;;;28.70;62.50;;;;;;5113502;27;20085;-65
2022/09/05 13:07:57;;;;;;;2.90;2.65;;;28.80;62.00;;;;;;5121174;27;20093;-62
2022/09/05 13:10:29;;;;;;;4.80;2.47;;;28.70;62.00;;;;;;5133820;27;20087;-62
2022/09/05 13:12:58;;;;;;;3.85;2.63;;;28.80;62.20;;;;;;5129296;27;20459;-62
2022/09/05 13:15:35;;;;;;;3.78;2.50;;;28.80;62.40;;;;;;5113048;27;20054;-64
2022/09/05 13:18:14;;;;;;;3.00;2.38;;;28.90;62.30;;;;;;5111720;27;20390;-63
2022/09/05 13:20:50;;;;;;;2.60;2.40;;;29.00;62.10;;;;;;5111486;28;20047;-64
2022/09/05 13:23:40;;;;;;;3.90;2.58;;;29.10;62.10;;;;;;5108698;27;20028;-62
2022/09/05 13:26:16;;;;;;;4.05;2.40;;;29.00;61.40;;;;;;5106608;27;20170;-66
2022/09/05 13:28:47;;;;;;;3.15;2.72;;;28.80;61.70;;;;;;5105170;28;20047;-62
2022/09/05 13:31:13;;;;;;;;;;;28.80;62.10;;;;;;5111567;27;20050;-62
2022/09/05 13:33:43;;;;;;;4.40;2.40;;;28.90;62.50;;;;;;5108604;27;20286;-62
2022/09/05 13:36:16;;;;;;;3.50;2.63;;;29.00;62.00;;;;;;5108927;27;20522;-62
2022/09/05 13:39:05;;;;;;;5.32;2.80;;;29.10;61.50;;;;;;5105399;27;20051;-63
2022/09/05 13:41:35;;;;;;;4.60;2.38;;;29.30;61.20;;;;;;5118159;27;20067;-64
2022/09/05 13:44:21;;;;;;;3.53;2.40;;;29.40;60.30;;;;;;5119764;27;20067;-62
2022/09/05 13:47:13;;;;;;;3.38;2.42;;;29.50;59.10;;;;;;5118547;27;20031;-65
2022/09/05 13:49:46;;;;;;;3.78;2.30;;;29.30;59.20;;;;;;5110710;27;20076;-62
2022/09/05 13:52:24;;;;;;;2.60;2.40;;;29.20;59.50;;;;;;5101693;28;20643;-62
2022/09/05 13:55:11;;;;;;;2.33;2.13;;;29.00;59.80;;;;;;5100306;28;20043;-62
2022/09/05 13:57:52;;;;;;;2.53;2.30;;;28.80;60.10;;;;;;5092106;28;20044;-65
2022/09/05 14:00:39;;;;;;;2.63;2.40;;;28.60;60.60;;;;;;5093882;28;20090;-62
2022/09/05 14:03:48;;;;;;;3.03;2.50;;;28.60;61.20;;;;;;5106568;28;20047;-62
2022/09/05 14:06:30;;;;;;;3.72;2.35;;;28.70;61.80;;;;;;5089013;28;20083;-62
2022/09/05 14:09:06;;;;;;;2.50;2.20;;;28.90;61.30;;;;;;5102329;28;20074;-62
2022/09/05 14:11:54;;;;;;;4.05;2.53;;;29.00;58.90;;;;;;5092285;28;20047;-65
2022/09/05 14:14:32;;;;;;;2.88;2.28;;;28.80;58.30;;;;;;5093834;28;20459;-63
2022/09/05 14:17:08;;;;;;;3.65;2.20;;;28.80;58.70;;;;;;5092938;28;20802;-66
2022/09/05 14:22:36;;;;;;;2.78;2.40;;;29.00;59.50;;;;;;5090854;28;20127;-67
2022/09/05 14:25:05;;;;;;;2.92;2.30;;;29.10;60.10;;;;;;5096149;28;20032;-63
2022/09/05 14:27:33;;;;;;;5.05;2.38;;;29.10;59.90;;;;;;5102573;28;20122;-63
2022/09/05 14:30:00;;;;;;;3.10;2.47;;;29.20;59.90;;;;;;5082545;28;20376;-63
2022/09/05 14:32:48;;;;;;;3.22;2.50;;;29.30;59.90;;;;;;5099126;28;20043;-63
2022/09/05 14:35:31;;;;;;;2.60;2.25;;;29.40;59.80;;;;;;5096753;28;20503;-63
2022/09/05 14:38:17;;;;;;;2.95;2.38;;;29.40;59.70;;;;;;5104339;27;20152;-63
2022/09/05 14:41:17;;;;;;;2.72;2.42;;;29.50;59.80;;;;;;5093638;28;20036;-63
2022/09/05 14:44:04;;;;;;;2.78;2.33;;;29.60;59.80;;;;;;5098779;28;20032;-63
2022/09/05 14:46:51;;;;;;;4.35;2.30;;;29.60;59.30;;;;;;5095450;28;20039;-63
2022/09/05 14:49:47;;;;;;;4.80;2.60;;;29.60;59.40;;;;;;5109154;28;20047;-64
2022/09/05 14:52:18;;;;;;;4.53;2.58;;;29.50;59.20;;;;;;5098914;27;20044;-68
2022/09/05 14:54:54;;;;;;;2.50;2.25;;;29.30;59.40;;;;;;5110079;28;20031;-62
2022/09/05 14:57:24;;;;;;;4.88;2.83;;;29.30;59.70;;;;;;5098751;28;21180;-62
2022/09/05 14:59:54;;;;;;;3.72;2.25;;;29.20;59.00;;;;;;5107407;28;20040;-65
2022/09/05 15:02:29;;;;;;;3.85;2.28;;;29.20;58.90;;;;;;5096477;27;20032;-63